Solo Tu — ZJL8310 — position and weather

sailwx.info

Track history (hours):
 
Tides and Currents Weather Stations Pressure Air Temp Water Temp Dewpoint Dewpoint Depression Visibility Wind Speed Wind Dir Waves Ship Positions

Solo Tu

Last reported at 2016-Jan-28 16:08 UTC. Time now 2016-Feb-10 10:50 UTC.
Position N 18°28' W 064°35'.
Warning: this ship's position is 12 days out of date.

Length 28 m; draft 2 m.

Type: Pleasure craft. MMSI: 378315000.

Date/timePositionNaut miles runAvg speedWind from/ knotsBaromVisibWave heightAir tempDewpointWater temp
2016-Jan-28 16:08N 18°28' W 064°35'610.2
2016-Jan-28 15:33N 18°26' W 064°41'3 3.1
2016-Jan-28 14:34N 18°23' W 064°43'9 9.3
2016-Jan-28 13:33N 18°18' W 064°51'  
2016-Jan-25 16:05N 18°18' W 064°53'610.8
2016-Jan-25 15:33N 18°21' W 064°48'1211.3
2016-Jan-25 14:32N 18°28' W 064°38'  
2016-Jan-21 14:33N 18°28' W 064°28'9 0.2
2016-Jan-19 19:33N 18°22' W 064°35'4 0.7
2016-Jan-19 14:22N 18°20' W 064°38'5 6.4
2016-Jan-19 13:33N 18°23' W 064°43'0 0.0
2016-Jan-19 12:33N 18°23' W 064°43'3 2.6
2016-Jan-19 11:33N 18°22' W 064°45'0 0.0
2016-Jan-19 10:15N 18°22' W 064°45'0 0.0
2016-Jan-19 09:30N 18°22' W 064°45'0 0.0
2016-Jan-19 08:33N 18°22' W 064°45'0 0.0
2016-Jan-19 07:21N 18°22' W 064°45'0 0.0
2016-Jan-19 06:33N 18°22' W 064°45'0 0.0
2016-Jan-19 05:30N 18°22' W 064°45'0 0.0
2016-Jan-19 04:27N 18°22' W 064°45'0 0.0
2016-Jan-19 03:33N 18°22' W 064°45'0 0.0
2016-Jan-19 02:21N 18°22' W 064°45'0 0.0
2016-Jan-19 01:33N 18°22' W 064°45'0 0.0
2016-Jan-19 00:27N 18°22' W 064°45'0 0.0
2016-Jan-18 23:27N 18°22' W 064°45'0 0.0
2016-Jan-18 22:27N 18°22' W 064°45'0 0.0
2016-Jan-18 21:27N 18°22' W 064°45'0 0.0
2016-Jan-18 20:27N 18°22' W 064°45'0 0.0
2016-Jan-18 19:33N 18°22' W 064°45'0 0.0
2016-Jan-18 18:33N 18°22' W 064°45'0 0.0
2016-Jan-18 17:33N 18°22' W 064°45'0 0.0
2016-Jan-18 16:33N 18°22' W 064°45'  
Track history (hours):
 
Tides and Currents Weather Stations Pressure Air Temp Water Temp Dewpoint Dewpoint Depression Visibility Wind Speed Wind Dir Waves Ship Positions

Solo Tu

Last reported at 2016-Jan-28 16:08 UTC. Time now 2016-Feb-10 10:50 UTC.
Position N 18°28' W 064°35'.
Warning: this ship's position is 12 days out of date.

Length 28 m; draft 2 m.

Type: Pleasure craft. MMSI: 378315000.

Date/timePositionNaut miles runAvg speedWind from/ knotsBaromVisibWave heightAir tempDewpointWater temp
2016-Jan-28 16:08N 18°28' W 064°35'610.2
2016-Jan-28 15:33N 18°26' W 064°41'3 3.1
2016-Jan-28 14:34N 18°23' W 064°43'9 9.3
2016-Jan-28 13:33N 18°18' W 064°51'  
2016-Jan-25 16:05N 18°18' W 064°53'610.8
2016-Jan-25 15:33N 18°21' W 064°48'1211.3
2016-Jan-25 14:32N 18°28' W 064°38'  
2016-Jan-21 14:33N 18°28' W 064°28'9 0.2
2016-Jan-19 19:33N 18°22' W 064°35'4 0.7
2016-Jan-19 14:22N 18°20' W 064°38'5 6.4
2016-Jan-19 13:33N 18°23' W 064°43'0 0.0
2016-Jan-19 12:33N 18°23' W 064°43'3 2.6
2016-Jan-19 11:33N 18°22' W 064°45'0 0.0
2016-Jan-19 10:15N 18°22' W 064°45'0 0.0
2016-Jan-19 09:30N 18°22' W 064°45'0 0.0
2016-Jan-19 08:33N 18°22' W 064°45'0 0.0
2016-Jan-19 07:21N 18°22' W 064°45'0 0.0
2016-Jan-19 06:33N 18°22' W 064°45'0 0.0
2016-Jan-19 05:30N 18°22' W 064°45'0 0.0
2016-Jan-19 04:27N 18°22' W 064°45'0 0.0
2016-Jan-19 03:33N 18°22' W 064°45'0 0.0
2016-Jan-19 02:21N 18°22' W 064°45'0 0.0
2016-Jan-19 01:33N 18°22' W 064°45'0 0.0
2016-Jan-19 00:27N 18°22' W 064°45'0 0.0
2016-Jan-18 23:27N 18°22' W 064°45'0 0.0
2016-Jan-18 22:27N 18°22' W 064°45'0 0.0
2016-Jan-18 21:27N 18°22' W 064°45'0 0.0
2016-Jan-18 20:27N 18°22' W 064°45'0 0.0
2016-Jan-18 19:33N 18°22' W 064°45'0 0.0
2016-Jan-18 18:33N 18°22' W 064°45'0 0.0
2016-Jan-18 17:33N 18°22' W 064°45'0 0.0
2016-Jan-18 16:33N 18°22' W 064°45'  

Dump ship's entire track history